Time;durP1;ratioP1;P1;durP2;ratioP2;P2;SDS_P1;SDS_P2;PMS_P1;PMS_P2;Temp;Humidity;BMP_temperature;BMP_pressure;BME280_temperature;BME280_humidity;BME280_pressure;Samples;Min_cycle;Max_cycle;Signal;HPM_P1;HPM_P2
2021/07/05 00:00:31;;;;;;;1.30;1.20;;;16.40;96.60;;;;;;5049015;28;20468;-79
2021/07/05 00:02:58;;;;;;;1.40;1.10;;;16.40;96.20;;;;;;5048292;28;20472;-81
2021/07/05 00:05:26;;;;;;;1.20;1.10;;;16.40;95.70;;;;;;5047337;28;20490;-79
2021/07/05 00:07:53;;;;;;;1.35;1.25;;;16.30;95.70;;;;;;5045843;28;20483;-79
2021/07/05 00:10:23;;;;;;;1.40;1.30;;;16.30;95.80;;;;;;5047707;28;20213;-82
2021/07/05 00:12:51;;;;;;;1.60;1.50;;;16.20;96.20;;;;;;5052462;28;20486;-80
2021/07/05 00:15:22;;;;;;;1.10;1.00;;;16.20;96.30;;;;;;5047152;28;20464;-81
2021/07/05 00:17:51;;;;;;;1.27;1.20;;;16.10;96.80;;;;;;5045963;28;20459;-81
2021/07/05 00:20:19;;;;;;;2.05;1.20;;;16.10;97.40;;;;;;5046676;28;20455;-81
2021/07/05 00:22:47;;;;;;;1.50;1.40;;;16.10;97.70;;;;;;5052671;28;20240;-80
2021/07/05 00:25:14;;;;;;;1.92;1.58;;;16.00;97.60;;;;;;5052236;28;20225;-79
2021/07/05 00:27:42;;;;;;;1.20;1.10;;;16.00;98.20;;;;;;5052158;28;20196;-78
2021/07/05 00:30:09;;;;;;;1.73;1.43;;;16.00;98.70;;;;;;5053343;28;20456;-80
2021/07/05 00:32:37;;;;;;;1.80;1.70;;;16.00;99.20;;;;;;5051210;28;20487;-79
2021/07/05 00:35:05;;;;;;;1.53;1.40;;;16.00;99.40;;;;;;5054369;28;20472;-79
2021/07/05 00:37:32;;;;;;;3.00;1.47;;;16.00;99.90;;;;;;5055218;28;20411;-80
2021/07/05 00:40:00;;;;;;;1.30;1.20;;;16.10;99.90;;;;;;5055440;28;20469;-78
2021/07/05 00:42:27;;;;;;;1.60;1.50;;;16.20;99.90;;;;;;5053854;28;20446;-80
2021/07/05 00:44:57;;;;;;;1.43;1.33;;;16.20;99.90;;;;;;5054386;28;20427;-79
2021/07/05 00:47:24;;;;;;;1.63;1.53;;;16.30;99.80;;;;;;5055096;28;20444;-81
2021/07/05 00:49:51;;;;;;;1.80;1.70;;;16.40;99.30;;;;;;5050544;28;20657;-80
2021/07/05 00:52:18;;;;;;;1.80;1.70;;;16.40;99.30;;;;;;5053248;28;20557;-79
2021/07/05 00:54:45;;;;;;;1.30;1.20;;;16.40;99.00;;;;;;5053120;28;20474;-80
2021/07/05 00:57:21;;;;;;;3.00;1.60;;;16.50;98.50;;;;;;5053437;28;20459;-79
2021/07/05 00:59:49;;;;;;;3.10;1.53;;;16.50;98.00;;;;;;5046573;28;20571;-80
2021/07/05 01:02:16;;;;;;;3.07;1.80;;;16.60;97.60;;;;;;5049164;28;20487;-80
2021/07/05 01:04:43;;;;;;;1.87;1.30;;;16.60;97.30;;;;;;5045608;28;20519;-79
2021/07/05 01:07:10;;;;;;;1.40;1.30;;;16.50;97.00;;;;;;5044453;28;20526;-79
2021/07/05 01:09:37;;;;;;;1.43;1.33;;;16.50;96.80;;;;;;5038206;28;20984;-79
2021/07/05 01:12:05;;;;;;;2.43;1.37;;;16.50;96.80;;;;;;5044087;28;20568;-79
2021/07/05 01:14:34;;;;;;;1.70;1.60;;;16.50;96.80;;;;;;5040684;28;20430;-79
2021/07/05 01:17:01;;;;;;;1.57;1.47;;;16.40;96.90;;;;;;5037591;28;20490;-80
2021/07/05 01:19:28;;;;;;;1.67;1.57;;;16.40;97.20;;;;;;5052770;28;20448;-80
2021/07/05 01:21:56;;;;;;;1.60;1.50;;;16.50;97.50;;;;;;5049759;28;20512;-80
2021/07/05 01:24:23;;;;;;;1.47;1.37;;;16.40;97.60;;;;;;5040058;28;20637;-80
2021/07/05 01:26:50;;;;;;;1.90;1.60;;;16.40;98.20;;;;;;5038511;28;20502;-79
2021/07/05 01:29:17;;;;;;;3.20;1.70;;;16.40;98.90;;;;;;5038937;28;20456;-79
2021/07/05 01:31:45;;;;;;;2.43;1.53;;;16.50;98.90;;;;;;5039084;28;20941;-79
2021/07/05 01:34:12;;;;;;;3.33;1.50;;;16.60;98.50;;;;;;5037890;28;20553;-79
2021/07/05 01:36:38;;;;;;;1.50;1.40;;;16.60;98.40;;;;;;5034929;28;20530;-79
2021/07/05 01:39:08;;;;;;;1.73;1.60;;;16.60;98.60;;;;;;5035573;28;20431;-79
2021/07/05 01:41:35;;;;;;;3.33;1.47;;;16.70;98.00;;;;;;5041226;28;20464;-79
2021/07/05 01:44:02;;;;;;;1.60;1.50;;;16.60;97.60;;;;;;5053875;28;20448;-82
2021/07/05 01:46:29;;;;;;;2.07;1.63;;;16.60;97.60;;;;;;5044624;28;20491;-80
2021/07/05 01:48:58;;;;;;;1.60;1.50;;;16.60;97.60;;;;;;5054149;28;20452;-80
2021/07/05 01:51:25;;;;;;;2.97;1.70;;;16.50;97.60;;;;;;5058617;28;20456;-80
2021/07/05 01:53:52;;;;;;;1.97;1.70;;;16.40;98.10;;;;;;5048853;28;20523;-80
2021/07/05 01:56:20;;;;;;;3.73;1.67;;;16.40;98.70;;;;;;5043140;28;20461;-79
2021/07/05 01:58:47;;;;;;;1.97;1.67;;;16.30;99.30;;;;;;5054277;28;20446;-80
2021/07/05 02:01:14;;;;;;;1.63;1.53;;;16.40;99.60;;;;;;5056327;28;20480;-79
2021/07/05 02:03:41;;;;;;;1.97;1.50;;;16.40;99.80;;;;;;5047035;28;20479;-80
2021/07/05 02:06:08;;;;;;;1.43;1.33;;;16.40;99.90;;;;;;5040128;28;20518;-79
2021/07/05 02:08:35;;;;;;;2.80;1.90;;;16.40;99.90;;;;;;5039404;28;20434;-80
2021/07/05 02:11:02;;;;;;;1.70;1.60;;;16.40;99.90;;;;;;5041831;28;20491;-80
2021/07/05 02:13:33;;;;;;;2.07;1.90;;;16.40;99.90;;;;;;5038678;28;20458;-79
2021/07/05 02:16:02;;;;;;;2.00;1.77;;;16.40;99.90;;;;;;5046026;28;20535;-80
2021/07/05 02:18:30;;;;;;;2.97;2.43;;;16.50;99.90;;;;;;5040082;28;20798;-79
2021/07/05 02:20:58;;;;;;;1.60;1.50;;;16.50;99.90;;;;;;5046515;28;20423;-79
2021/07/05 02:23:25;;;;;;;1.73;1.63;;;16.60;99.90;;;;;;5048706;28;20458;-79
2021/07/05 02:25:52;;;;;;;2.07;1.70;;;16.50;99.90;;;;;;5050346;28;20499;-79
2021/07/05 02:28:22;;;;;;;1.83;1.73;;;16.60;99.90;;;;;;5044765;28;20452;-79
2021/07/05 02:30:52;;;;;;;3.83;2.00;;;16.60;99.90;;;;;;5051517;28;20460;-79
2021/07/05 02:33:20;;;;;;;3.60;3.27;;;16.60;99.90;;;;;;5053241;28;20476;-79
2021/07/05 02:35:48;;;;;;;2.10;2.00;;;16.60;99.90;;;;;;5051948;28;20476;-79
2021/07/05 02:38:15;;;;;;;2.20;1.87;;;16.60;99.40;;;;;;5046569;28;20456;-79
2021/07/05 02:40:44;;;;;;;1.80;1.70;;;16.70;99.40;;;;;;5039691;28;20971;-79
2021/07/05 02:43:12;;;;;;;2.07;1.97;;;16.70;99.40;;;;;;5049256;28;20497;-79
2021/07/05 02:45:41;;;;;;;2.80;1.93;;;16.80;99.10;;;;;;5046543;28;20540;-80
2021/07/05 02:48:12;;;;;;;6.40;1.63;;;16.80;98.70;;;;;;5045926;28;20460;-79
2021/07/05 02:50:41;;;;;;;2.77;1.87;;;16.90;98.30;;;;;;5041921;28;20480;-80
2021/07/05 02:53:09;;;;;;;1.83;1.73;;;16.90;97.70;;;;;;5038563;28;20530;-78
2021/07/05 02:55:36;;;;;;;1.70;1.60;;;17.00;97.40;;;;;;5036471;28;20503;-79
2021/07/05 02:58:04;;;;;;;4.00;1.50;;;17.10;97.20;;;;;;5036462;28;20469;-77
2021/07/05 03:00:34;;;;;;;2.03;1.47;;;17.10;96.00;;;;;;5041974;28;20471;-78
2021/07/05 03:03:00;;;;;;;1.70;1.53;;;17.20;95.60;;;;;;5041578;28;20489;-81
2021/07/05 03:05:31;;;;;;;2.60;1.60;;;17.20;94.80;;;;;;5048412;28;20457;-79
2021/07/05 03:07:59;;;;;;;4.83;1.73;;;17.20;94.80;;;;;;5046901;28;20449;-79
2021/07/05 03:10:28;;;;;;;2.03;1.70;;;17.20;94.30;;;;;;5044146;28;20456;-79
2021/07/05 03:12:56;;;;;;;2.93;1.70;;;17.30;94.30;;;;;;5043159;28;20493;-80
2021/07/05 03:15:23;;;;;;;1.93;1.30;;;17.20;94.20;;;;;;5046867;28;20940;-79
2021/07/05 03:17:50;;;;;;;2.13;1.90;;;17.20;94.50;;;;;;5044897;28;20549;-79
2021/07/05 03:20:19;;;;;;;1.97;1.77;;;17.20;94.80;;;;;;5044752;28;20797;-79
2021/07/05 03:22:49;;;;;;;3.13;1.57;;;17.20;94.90;;;;;;5053420;22;20500;-77
2021/07/05 03:25:19;;;;;;;1.60;1.50;;;17.20;94.50;;;;;;5015119;28;20980;-77
2021/07/05 03:27:46;;;;;;;1.50;1.40;;;17.20;94.70;;;;;;5026763;28;20498;-77
2021/07/05 03:30:15;;;;;;;4.10;1.40;;;17.20;94.80;;;;;;5023734;28;20537;-78
2021/07/05 03:32:42;;;;;;;3.20;1.90;;;17.20;94.70;;;;;;5014644;28;20485;-78
2021/07/05 03:35:12;;;;;;;1.90;1.70;;;17.10;94.70;;;;;;5025713;28;20469;-76
2021/07/05 03:37:40;;;;;;;2.80;1.80;;;17.10;95.00;;;;;;5028670;28;20488;-77
2021/07/05 03:40:11;;;;;;;1.70;1.60;;;17.20;94.90;;;;;;5018611;28;21024;-77
2021/07/05 03:42:38;;;;;;;3.20;2.27;;;17.20;95.10;;;;;;5014086;28;20537;-77
2021/07/05 03:45:07;;;;;;;2.03;1.87;;;17.30;94.30;;;;;;5013780;28;21001;-78
2021/07/05 03:47:34;;;;;;;1.97;1.80;;;17.30;94.30;;;;;;5015450;28;20556;-77
2021/07/05 03:50:01;;;;;;;5.10;2.10;;;17.20;94.70;;;;;;5032522;28;20458;-77
2021/07/05 03:52:28;;;;;;;1.60;1.50;;;17.20;94.60;;;;;;5035287;28;20478;-77
2021/07/05 03:54:55;;;;;;;2.90;1.80;;;17.30;94.30;;;;;;5026558;28;20492;-78
2021/07/05 03:57:23;;;;;;;1.83;1.73;;;17.30;94.30;;;;;;5015733;28;20458;-77
2021/07/05 03:59:51;;;;;;;2.03;1.77;;;17.20;94.20;;;;;;5014423;28;20905;-78
2021/07/05 04:02:18;;;;;;;2.20;2.00;;;17.20;94.70;;;;;;5015283;28;20462;-78
2021/07/05 04:04:45;;;;;;;2.43;1.70;;;17.20;95.10;;;;;;5023822;28;20443;-77
2021/07/05 04:07:13;;;;;;;2.27;2.10;;;17.20;95.20;;;;;;5019740;28;20461;-78
2021/07/05 04:09:40;;;;;;;2.13;1.90;;;17.20;95.40;;;;;;5014225;28;20502;-78
2021/07/05 04:12:08;;;;;;;4.20;2.37;;;17.20;95.40;;;;;;5013212;28;20493;-78
2021/07/05 04:14:37;;;;;;;2.40;1.80;;;17.20;95.70;;;;;;5013537;28;20595;-78
2021/07/05 04:17:04;;;;;;;3.00;1.90;;;17.40;95.60;;;;;;5017494;28;20500;-77
2021/07/05 04:19:31;;;;;;;2.27;1.97;;;17.40;94.70;;;;;;5032165;28;20453;-78
2021/07/05 04:21:58;;;;;;;2.23;1.80;;;17.50;94.40;;;;;;5036106;28;20446;-78
2021/07/05 04:24:25;;;;;;;3.70;2.30;;;17.50;94.40;;;;;;5036358;28;20453;-78
2021/07/05 04:26:52;;;;;;;3.30;1.70;;;17.50;94.40;;;;;;5023701;28;20537;-78
2021/07/05 04:29:19;;;;;;;3.00;2.47;;;17.60;94.40;;;;;;5014046;28;20549;-78
2021/07/05 04:31:48;;;;;;;2.00;1.73;;;17.60;94.40;;;;;;5014261;28;20539;-77
2021/07/05 04:34:15;;;;;;;3.17;2.50;;;17.60;94.40;;;;;;5013572;28;20573;-78
2021/07/05 04:36:41;;;;;;;7.47;2.37;;;17.60;94.30;;;;;;5013998;28;20524;-78
2021/07/05 04:39:09;;;;;;;1.83;1.73;;;17.60;94.40;;;;;;5014034;28;20553;-78
2021/07/05 04:41:37;;;;;;;6.07;2.70;;;17.60;94.40;;;;;;5015105;28;20496;-78
2021/07/05 04:44:04;;;;;;;2.10;2.00;;;17.60;94.40;;;;;;5014759;28;20482;-78
2021/07/05 04:46:31;;;;;;;4.03;2.40;;;17.60;94.40;;;;;;5015451;28;20983;-78
2021/07/05 04:49:00;;;;;;;2.27;2.07;;;17.60;94.70;;;;;;5016988;28;20461;-77
2021/07/05 04:51:27;;;;;;;2.67;2.00;;;17.60;94.80;;;;;;5015623;28;20457;-77
2021/07/05 04:53:54;;;;;;;2.30;2.10;;;17.60;94.80;;;;;;5014170;28;20585;-77
2021/07/05 04:56:21;;;;;;;3.60;2.20;;;17.60;94.90;;;;;;5015288;28;20462;-78
2021/07/05 04:58:48;;;;;;;2.57;2.37;;;17.60;94.80;;;;;;5015079;28;20467;-77
2021/07/05 05:01:15;;;;;;;2.13;1.93;;;17.60;94.90;;;;;;5017793;28;20961;-78
2021/07/05 05:03:42;;;;;;;7.10;2.00;;;17.60;94.90;;;;;;5023363;28;20484;-78
2021/07/05 05:06:10;;;;;;;2.20;2.00;;;17.60;95.10;;;;;;5020828;28;20457;-76
2021/07/05 05:08:37;;;;;;;4.07;2.10;;;17.60;95.00;;;;;;5024897;28;20536;-77
2021/07/05 05:11:04;;;;;;;3.40;3.10;;;17.60;95.10;;;;;;5023319;28;20457;-77
2021/07/05 05:13:31;;;;;;;6.87;2.17;;;17.60;95.30;;;;;;5016687;28;20926;-77
2021/07/05 05:15:58;;;;;;;5.10;2.00;;;17.50;95.80;;;;;;5014390;28;20816;-77
2021/07/05 05:18:25;;;;;;;3.27;2.17;;;17.60;95.50;;;;;;5018985;28;20500;-76
2021/07/05 05:20:54;;;;;;;4.23;2.50;;;17.50;95.50;;;;;;5017069;28;20529;-76
2021/07/05 05:23:26;;;;;;;2.50;2.13;;;17.60;95.70;;;;;;4994644;28;20473;-76
2021/07/05 05:25:52;;;;;;;2.20;2.00;;;17.60;95.70;;;;;;4998720;28;20574;-76
2021/07/05 05:28:19;;;;;;;3.40;1.80;;;17.60;95.50;;;;;;4999172;28;20488;-76
2021/07/05 05:30:46;;;;;;;1.97;1.87;;;17.70;95.30;;;;;;4998946;28;20540;-77
2021/07/05 05:33:13;;;;;;;2.67;2.10;;;17.70;95.20;;;;;;5000578;28;20478;-76
2021/07/05 05:35:40;;;;;;;1.90;1.80;;;17.70;95.50;;;;;;5017016;28;20462;-76
2021/07/05 05:38:07;;;;;;;4.30;1.93;;;17.70;95.10;;;;;;5031677;28;20458;-76
2021/07/05 05:40:35;;;;;;;2.13;1.90;;;17.70;95.20;;;;;;5034787;28;20468;-76
2021/07/05 05:43:07;;;;;;;3.10;2.10;;;17.70;95.20;;;;;;5030495;28;20498;-76
2021/07/05 05:45:34;;;;;;;2.93;2.30;;;17.70;94.50;;;;;;5029432;28;20472;-76
2021/07/05 05:48:01;;;;;;;2.57;2.23;;;17.70;94.50;;;;;;5028744;28;20484;-75
2021/07/05 05:50:28;;;;;;;3.57;1.57;;;17.80;94.50;;;;;;5021393;28;20495;-76
2021/07/05 05:52:55;;;;;;;4.47;2.23;;;17.80;94.50;;;;;;5018925;28;20506;-76
2021/07/05 05:55:22;;;;;;;4.73;2.20;;;17.80;94.50;;;;;;5017497;28;21013;-76
2021/07/05 05:57:51;;;;;;;4.13;2.33;;;17.80;94.20;;;;;;5015507;28;20952;-76
2021/07/05 06:00:23;;;;;;;4.60;1.90;;;17.90;94.20;;;;;;5032720;28;20460;-78
2021/07/05 06:02:51;;;;;;;3.00;2.40;;;17.90;93.40;;;;;;5025397;28;21074;-76
2021/07/05 06:05:18;;;;;;;3.63;1.83;;;18.00;93.10;;;;;;5017371;28;20540;-76
2021/07/05 06:07:49;;;;;;;2.70;2.33;;;18.00;92.90;;;;;;5020549;28;20858;-75
2021/07/05 06:10:17;;;;;;;4.03;2.90;;;18.00;93.10;;;;;;5032509;28;20491;-76
2021/07/05 06:12:44;;;;;;;6.13;2.60;;;18.10;93.10;;;;;;5020357;28;20600;-76
2021/07/05 06:15:14;;;;;;;3.93;2.57;;;18.10;93.40;;;;;;5016679;28;20592;-76
2021/07/05 06:17:41;;;;;;;2.60;2.40;;;18.20;93.30;;;;;;5018299;28;20493;-76
2021/07/05 06:20:09;;;;;;;5.30;2.50;;;18.20;93.80;;;;;;5016476;28;20417;-76
2021/07/05 06:22:42;;;;;;;6.40;2.30;;;18.20;93.30;;;;;;5016190;28;20493;-76
2021/07/05 06:25:10;;;;;;;9.83;3.23;;;18.20;94.20;;;;;;5015787;28;20863;-75
2021/07/05 06:27:38;;;;;;;3.33;2.07;;;18.30;94.40;;;;;;5015280;28;20962;-76
2021/07/05 06:30:06;;;;;;;4.37;2.50;;;18.30;93.90;;;;;;5014655;28;20520;-76
2021/07/05 06:32:35;;;;;;;3.13;2.33;;;18.30;94.30;;;;;;5013827;28;20565;-76
2021/07/05 06:35:02;;;;;;;2.20;2.10;;;18.30;94.70;;;;;;5013489;28;20525;-76
2021/07/05 06:37:28;;;;;;;4.57;2.17;;;18.30;94.70;;;;;;5013234;28;20458;-76
2021/07/05 06:39:55;;;;;;;4.33;2.40;;;18.30;94.70;;;;;;5015705;28;20523;-75
2021/07/05 06:42:22;;;;;;;2.80;2.23;;;18.30;95.00;;;;;;5015871;28;20496;-75
2021/07/05 06:44:50;;;;;;;4.97;2.70;;;18.40;94.70;;;;;;5016481;28;20489;-76
2021/07/05 06:47:17;;;;;;;4.73;2.47;;;18.40;94.70;;;;;;5027606;28;20450;-75
2021/07/05 06:49:45;;;;;;;3.37;2.30;;;18.50;94.80;;;;;;5034805;28;20462;-76
2021/07/05 06:52:13;;;;;;;6.73;2.33;;;18.50;94.50;;;;;;5034496;28;20471;-76
2021/07/05 06:54:40;;;;;;;3.80;2.27;;;18.70;93.80;;;;;;5032586;28;20478;-76
2021/07/05 06:57:28;;;;;;;4.40;2.73;;;18.80;93.20;;;;;;5017182;28;20469;-75
2021/07/05 06:59:55;;;;;;;3.57;1.83;;;18.90;92.20;;;;;;5017843;28;20463;-75
2021/07/05 07:02:21;;;;;;;2.70;2.10;;;19.00;92.10;;;;;;5021525;28;20452;-76
2021/07/05 07:04:50;;;;;;;2.33;2.13;;;19.20;91.40;;;;;;5015978;28;20842;-75
2021/07/05 07:07:17;;;;;;;2.80;2.27;;;19.50;90.00;;;;;;5014102;28;20478;-74
2021/07/05 07:09:44;;;;;;;4.07;2.23;;;19.60;87.80;;;;;;5015987;28;20939;-74
2021/07/05 07:12:16;;;;;;;2.80;2.00;;;19.70;86.30;;;;;;5020453;28;20753;-76
2021/07/05 07:14:43;;;;;;;4.60;1.70;;;19.80;85.60;;;;;;5021544;28;20529;-75
2021/07/05 07:17:20;;;;;;;2.10;2.00;;;19.70;83.60;;;;;;5026490;28;20446;-76
2021/07/05 07:19:47;;;;;;;6.90;2.07;;;19.70;85.90;;;;;;5019566;28;20442;-75
2021/07/05 07:22:16;;;;;;;5.13;1.67;;;19.80;84.00;;;;;;5012188;28;20435;-75
2021/07/05 07:24:43;;;;;;;4.00;1.90;;;20.00;82.90;;;;;;5018869;28;20429;-76
2021/07/05 07:27:10;;;;;;;3.23;1.80;;;20.10;82.00;;;;;;5026375;28;20471;-77
2021/07/05 07:29:37;;;;;;;4.00;1.90;;;20.20;80.70;;;;;;5021475;28;20430;-76
2021/07/05 07:32:04;;;;;;;3.00;1.93;;;20.20;79.00;;;;;;5031109;28;20466;-76
2021/07/05 07:34:31;;;;;;;3.90;1.60;;;20.20;79.80;;;;;;5022223;28;20474;-77
2021/07/05 07:37:02;;;;;;;3.20;2.00;;;20.40;78.30;;;;;;4997628;28;20547;-76
2021/07/05 07:39:34;;;;;;;3.90;2.30;;;20.40;77.10;;;;;;4996179;28;20530;-77
2021/07/05 07:42:01;;;;;;;8.83;2.37;;;20.30;77.00;;;;;;4997101;28;20438;-76
2021/07/05 07:44:28;;;;;;;3.70;1.80;;;20.20;78.50;;;;;;4995357;28;20452;-77
2021/07/05 07:46:55;;;;;;;3.00;2.23;;;20.20;79.20;;;;;;5018541;28;20487;-77
2021/07/05 07:49:22;;;;;;;2.60;1.57;;;20.30;77.00;;;;;;5027200;28;20460;-76
2021/07/05 07:51:49;;;;;;;2.30;1.77;;;20.30;77.00;;;;;;5026346;28;20494;-75
2021/07/05 07:54:16;;;;;;;2.07;1.90;;;20.40;77.10;;;;;;5034788;28;20469;-78
2021/07/05 07:56:44;;;;;;;1.67;1.57;;;20.40;76.10;;;;;;5035487;28;20419;-77
2021/07/05 07:59:12;;;;;;;5.60;1.87;;;20.50;75.10;;;;;;5034085;28;20459;-77
2021/07/05 08:01:39;;;;;;;1.97;1.77;;;20.60;74.40;;;;;;5015927;28;20483;-77
2021/07/05 08:04:06;;;;;;;4.43;1.83;;;20.50;74.00;;;;;;5006403;28;20902;-77
2021/07/05 08:06:33;;;;;;;3.10;1.60;;;20.60;73.80;;;;;;5010524;28;20489;-75
2021/07/05 08:09:00;;;;;;;2.40;1.70;;;20.60;73.50;;;;;;5033495;28;20461;-76
2021/07/05 08:11:27;;;;;;;2.90;1.57;;;20.70;71.90;;;;;;5019919;28;20490;-76
2021/07/05 08:13:55;;;;;;;2.70;1.47;;;20.70;72.20;;;;;;5016248;28;21020;-77
2021/07/05 08:16:22;;;;;;;6.57;2.00;;;20.70;72.30;;;;;;5017036;28;20451;-75
2021/07/05 08:18:49;;;;;;;4.13;2.30;;;20.80;72.90;;;;;;5016045;28;20991;-75
2021/07/05 08:21:17;;;;;;;1.77;1.67;;;20.80;71.80;;;;;;5016423;28;20459;-76
2021/07/05 08:23:45;;;;;;;3.03;1.50;;;20.90;71.60;;;;;;5014498;28;20478;-75
2021/07/05 08:26:12;;;;;;;3.60;1.90;;;20.90;71.20;;;;;;5017663;28;20443;-77
2021/07/05 08:28:39;;;;;;;4.27;1.70;;;21.10;69.20;;;;;;5015592;28;20491;-76
2021/07/05 08:31:07;;;;;;;2.60;2.30;;;21.10;68.80;;;;;;5018008;28;20456;-78
2021/07/05 08:33:35;;;;;;;6.40;2.10;;;21.00;68.70;;;;;;5016775;28;20563;-79
2021/07/05 08:36:04;;;;;;;2.30;1.40;;;21.10;68.80;;;;;;5018858;28;20564;-76
2021/07/05 08:38:31;;;;;;;1.37;1.27;;;21.00;68.70;;;;;;5016403;28;21013;-78
2021/07/05 08:40:59;;;;;;;2.60;1.70;;;20.90;68.70;;;;;;5015439;28;20453;-76
2021/07/05 08:43:28;;;;;;;2.20;1.20;;;20.90;68.60;;;;;;5016477;28;20452;-77
2021/07/05 08:45:59;;;;;;;2.13;1.43;;;20.90;68.70;;;;;;5014544;28;20518;-76
2021/07/05 08:48:30;;;;;;;2.00;1.50;;;21.00;68.70;;;;;;5017640;28;20495;-76
2021/07/05 08:50:59;;;;;;;3.37;1.60;;;20.80;68.50;;;;;;5020510;28;20455;-76
2021/07/05 08:53:26;;;;;;;7.87;2.03;;;20.70;68.90;;;;;;5033557;28;20454;-74
2021/07/05 08:55:53;;;;;;;2.30;1.20;;;20.70;69.50;;;;;;5034784;28;20455;-74
2021/07/05 08:58:20;;;;;;;1.43;1.33;;;20.70;68.40;;;;;;5032061;28;20486;-76
2021/07/05 09:00:47;;;;;;;4.00;1.77;;;20.70;68.40;;;;;;5016932;28;20487;-76
2021/07/05 09:03:14;;;;;;;4.00;1.30;;;20.80;67.30;;;;;;5014102;28;20457;-76
2021/07/05 09:05:42;;;;;;;2.80;1.60;;;20.90;67.40;;;;;;5018804;28;20522;-74
2021/07/05 09:08:11;;;;;;;2.20;1.23;;;20.90;67.00;;;;;;5014330;28;20446;-74
2021/07/05 09:10:45;;;;;;;6.03;1.63;;;20.80;65.30;;;;;;5013446;28;20429;-74
2021/07/05 09:13:15;;;;;;;2.70;1.50;;;20.70;67.60;;;;;;5013620;28;20572;-75
2021/07/05 09:15:44;;;;;;;3.00;1.20;;;20.70;65.90;;;;;;5012573;28;20588;-75
2021/07/05 09:18:32;;;;;;;2.03;1.70;;;20.90;65.30;;;;;;5013097;28;20547;-76
2021/07/05 09:21:20;;;;;;;2.00;1.50;;;21.00;65.90;;;;;;5010546;28;20500;-76
2021/07/05 09:23:52;;;;;;;2.17;1.67;;;21.10;65.20;;;;;;5075231;22;20489;-82
2021/07/05 09:26:21;;;;;;;1.70;1.10;;;21.10;65.10;;;;;;5084746;28;20452;-82
2021/07/05 09:28:50;;;;;;;3.37;1.27;;;21.20;64.90;;;;;;5082623;28;20912;-80
2021/07/05 09:31:32;;;;;;;1.27;1.23;;;21.30;64.10;;;;;;5080511;28;20518;-80
2021/07/05 09:34:00;;;;;;;3.53;1.10;;;21.40;64.10;;;;;;5086526;28;20452;-81
2021/07/05 09:36:28;;;;;;;4.10;1.27;;;21.60;61.10;;;;;;5091984;28;21005;-81
2021/07/05 09:38:56;;;;;;;5.03;1.67;;;21.80;61.10;;;;;;5058661;28;21020;-80
2021/07/05 09:41:25;;;;;;;1.93;1.33;;;22.00;60.40;;;;;;5073472;28;20833;-82
2021/07/05 09:43:55;;;;;;;2.63;1.37;;;22.20;60.60;;;;;;5078198;28;20512;-81
2021/07/05 09:46:41;;;;;;;2.40;1.53;;;22.10;60.50;;;;;;5080227;28;20451;-81
2021/07/05 09:49:20;;;;;;;1.50;1.40;;;22.10;60.50;;;;;;5081768;28;20450;-81
2021/07/05 09:52:09;;;;;;;1.80;1.50;;;22.20;60.60;;;;;;5081441;28;20458;-79
2021/07/05 09:54:40;;;;;;;4.97;1.77;;;22.30;59.90;;;;;;5082510;28;20468;-80
2021/07/05 09:57:25;;;;;;;2.00;1.33;;;22.50;59.10;;;;;;5083404;28;20526;-81
2021/07/05 09:59:52;;;;;;;2.37;1.53;;;22.60;58.80;;;;;;5077427;28;20557;-80
2021/07/05 10:02:21;;;;;;;2.23;1.20;;;22.40;60.30;;;;;;5082704;28;20470;-80
2021/07/05 10:04:48;;;;;;;4.80;2.00;;;22.60;59.10;;;;;;5078627;28;20478;-80
2021/07/05 10:07:18;;;;;;;2.00;1.47;;;23.00;57.40;;;;;;5078235;28;20580;-81
2021/07/05 10:09:46;;;;;;;2.20;1.10;;;23.20;55.60;;;;;;5065923;28;20462;-79
2021/07/05 10:12:18;;;;;;;2.43;1.00;;;23.70;52.70;;;;;;5076714;28;20473;-79
2021/07/05 10:14:54;;;;;;;1.10;1.00;;;24.30;52.60;;;;;;5076213;28;20555;-80
2021/07/05 10:17:22;;;;;;;2.00;1.30;;;24.80;48.90;;;;;;5086634;28;20440;-80
2021/07/05 10:19:49;;;;;;;1.77;1.40;;;24.80;49.80;;;;;;5086127;28;20509;-80
2021/07/05 10:22:18;;;;;;;2.30;1.10;;;24.80;49.20;;;;;;5083395;28;20507;-78
2021/07/05 10:24:46;;;;;;;2.80;1.30;;;25.30;48.00;;;;;;5082593;28;20491;-81
2021/07/05 10:27:14;;;;;;;1.03;0.80;;;25.50;47.70;;;;;;5078324;28;20532;-79
2021/07/05 10:29:42;;;;;;;3.30;1.17;;;24.10;50.10;;;;;;5079915;28;20441;-80
2021/07/05 10:32:10;;;;;;;0.90;0.90;;;24.20;50.20;;;;;;5078883;28;20485;-79
2021/07/05 10:34:38;;;;;;;1.77;0.97;;;24.30;50.70;;;;;;5075296;28;20973;-78
2021/07/05 10:37:07;;;;;;;1.67;0.87;;;24.30;49.90;;;;;;5064236;28;20515;-79
2021/07/05 10:39:37;;;;;;;1.00;1.00;;;24.30;48.90;;;;;;5070542;28;20500;-80
2021/07/05 10:42:28;;;;;;;1.17;0.87;;;23.80;50.40;;;;;;5073306;28;20450;-79
2021/07/05 10:44:55;;;;;;;5.70;0.90;;;23.70;50.10;;;;;;5057209;28;20908;-78
2021/07/05 10:47:41;;;;;;;1.00;0.80;;;23.30;51.90;;;;;;5057258;28;20530;-79
2021/07/05 10:50:08;;;;;;;3.13;1.17;;;23.40;52.00;;;;;;5057587;28;20909;-79
2021/07/05 10:52:49;;;;;;;3.47;0.73;;;23.80;51.20;;;;;;5078733;28;20515;-79
2021/07/05 10:55:37;;;;;;;1.07;0.80;;;24.10;50.10;;;;;;5086730;28;20500;-78
2021/07/05 10:58:13;;;;;;;0.83;0.83;;;24.30;49.20;;;;;;5085382;28;20458;-79
2021/07/05 11:00:42;;;;;;;0.60;0.60;;;24.50;48.40;;;;;;5092757;28;20790;-79
2021/07/05 11:03:09;;;;;;;1.30;0.70;;;24.40;48.60;;;;;;5087236;28;20448;-78
2021/07/05 11:05:41;;;;;;;0.73;0.73;;;24.00;49.30;;;;;;5078265;28;21002;-78
2021/07/05 11:08:26;;;;;;;1.10;0.60;;;24.00;49.40;;;;;;5081634;28;20478;-79
2021/07/05 11:11:21;;;;;;;0.70;0.60;;;23.70;50.40;;;;;;5084491;28;20430;-80
2021/07/05 11:14:08;;;;;;;1.73;0.80;;;23.60;50.40;;;;;;5084653;28;20500;-78
2021/07/05 11:16:59;;;;;;;0.70;0.70;;;23.60;50.70;;;;;;5078114;28;20466;-79
2021/07/05 11:19:35;;;;;;;0.87;0.60;;;23.70;50.80;;;;;;5077089;28;20874;-79
2021/07/05 11:22:18;;;;;;;3.03;1.93;;;23.40;51.40;;;;;;5092444;28;20427;-80
2021/07/05 11:24:51;;;;;;;0.70;0.70;;;23.50;51.30;;;;;;5092377;28;20452;-79
2021/07/05 11:27:54;;;;;;;1.27;0.70;;;23.50;52.10;;;;;;5088540;28;20454;-80
2021/07/05 11:30:39;;;;;;;0.70;0.70;;;23.40;50.60;;;;;;5092115;28;20468;-79
2021/07/05 11:33:27;;;;;;;1.67;0.73;;;23.20;51.80;;;;;;5093039;28;20532;-78
2021/07/05 11:35:58;;;;;;;0.77;0.77;;;23.10;51.80;;;;;;5096984;28;20493;-80
2021/07/05 11:38:40;;;;;;;1.97;0.83;;;23.00;51.70;;;;;;5096994;28;20459;-80
2021/07/05 11:41:24;;;;;;;1.27;1.00;;;23.10;51.80;;;;;;5089008;28;20459;-81
2021/07/05 11:43:57;;;;;;;1.00;0.80;;;23.10;51.80;;;;;;5071909;28;20498;-81
2021/07/05 11:46:47;;;;;;;1.00;0.90;;;23.30;51.90;;;;;;5091608;28;20452;-80
2021/07/05 11:49:15;;;;;;;1.10;0.63;;;23.70;51.10;;;;;;5069199;28;20437;-81
2021/07/05 11:51:49;;;;;;;0.70;0.60;;;24.00;50.10;;;;;;5062551;28;20456;-80
2021/07/05 11:54:17;;;;;;;1.80;0.87;;;24.20;49.80;;;;;;5082794;28;20991;-81
2021/07/05 11:56:46;;;;;;;1.47;0.63;;;24.40;48.90;;;;;;5087877;28;20493;-81
2021/07/05 11:59:19;;;;;;;1.90;0.60;;;24.50;48.90;;;;;;5087000;28;20455;-80
2021/07/05 12:01:46;;;;;;;1.17;0.90;;;24.50;47.50;;;;;;5089910;28;20460;-79
2021/07/05 12:04:14;;;;;;;0.63;0.63;;;24.10;48.90;;;;;;5093411;28;20502;-80
2021/07/05 12:06:49;;;;;;;2.70;1.13;;;23.90;49.50;;;;;;5089714;28;20452;-78
2021/07/05 12:09:18;;;;;;;0.90;0.90;;;24.10;49.70;;;;;;5088865;28;20423;-78
2021/07/05 12:11:47;;;;;;;0.70;0.70;;;24.40;48.90;;;;;;5090819;28;20509;-80
2021/07/05 12:14:20;;;;;;;0.80;0.70;;;24.50;48.60;;;;;;5089264;28;20450;-80
2021/07/05 12:16:51;;;;;;;0.80;0.80;;;24.50;48.20;;;;;;5088278;28;20980;-80
2021/07/05 12:19:18;;;;;;;0.80;0.70;;;24.30;48.50;;;;;;5093879;28;20447;-80
2021/07/05 12:21:47;;;;;;;0.90;0.90;;;23.70;50.20;;;;;;5087054;28;20456;-81
2021/07/05 12:24:18;;;;;;;1.23;0.87;;;22.90;55.10;;;;;;5078589;28;20517;-80
2021/07/05 12:26:48;;;;;;;1.57;1.00;;;22.40;60.80;;;;;;5075140;28;20439;-80
2021/07/05 12:29:19;;;;;;;1.40;0.70;;;22.50;68.00;;;;;;5075473;28;20490;-79
2021/07/05 12:32:10;;;;;;;1.00;0.90;;;22.90;64.10;;;;;;5081668;28;20462;-79
2021/07/05 12:34:56;;;;;;;1.10;1.00;;;23.30;62.20;;;;;;5080104;28;20958;-80
2021/07/05 12:37:26;;;;;;;1.57;1.10;;;23.70;56.70;;;;;;5082290;28;20480;-79
2021/07/05 12:40:00;;;;;;;1.23;1.10;;;23.60;57.50;;;;;;5076210;28;20581;-77
2021/07/05 12:42:30;;;;;;;0.77;0.77;;;24.00;55.10;;;;;;5074061;28;20497;-78
2021/07/05 12:44:59;;;;;;;3.93;0.90;;;24.20;52.80;;;;;;5077112;28;20440;-78
2021/07/05 12:47:27;;;;;;;1.30;0.90;;;24.30;52.90;;;;;;5079608;28;20423;-77
2021/07/05 12:49:55;;;;;;;0.80;0.77;;;24.60;50.70;;;;;;5081639;28;20506;-77
2021/07/05 12:52:22;;;;;;;1.47;0.87;;;24.90;47.90;;;;;;5089183;28;20456;-76
2021/07/05 12:54:50;;;;;;;4.63;0.90;;;24.90;49.40;;;;;;5086442;28;20463;-77
2021/07/05 12:57:18;;;;;;;2.73;0.87;;;25.30;48.70;;;;;;5089460;28;20472;-78
2021/07/05 13:00:05;;;;;;;1.97;1.20;;;25.00;47.60;;;;;;5091578;28;20461;-78